Time;durP1;ratioP1;P1;durP2;ratioP2;P2;SDS_P1;SDS_P2;PMS_P1;PMS_P2;Temp;Humidity;BMP_temperature;BMP_pressure;BME280_temperature;BME280_humidity;BME280_pressure;Samples;Min_cycle;Max_cycle;Signal;HPM_P1;HPM_P2
2021/07/03 00:00:48;;;;;;;5.82;5.32;;;;;;;;;;5113411;28;20727;-83
2021/07/03 00:03:16;;;;;;;8.15;5.78;;;;;;;;;;5112713;28;20206;-83
2021/07/03 00:05:44;;;;;;;5.80;5.30;;;;;;;;;;5113105;28;20206;-83
2021/07/03 00:08:11;;;;;;;5.85;5.35;;;;;;;;;;5113210;28;20203;-82
2021/07/03 00:10:39;;;;;;;5.97;5.47;;;;;;;;;;5112841;28;20220;-83
2021/07/03 00:13:08;;;;;;;5.28;4.82;;;;;;;;;;5113038;28;20200;-82
2021/07/03 00:15:37;;;;;;;5.15;4.65;;;;;;;;;;5111801;28;20206;-84
2021/07/03 00:18:06;;;;;;;5.53;5.03;;;;;;;;;;5113376;28;20199;-83
2021/07/03 00:20:33;;;;;;;4.72;4.32;;;;;;;;;;5113047;28;20219;-84
2021/07/03 00:23:01;;;;;;;5.18;4.25;;;;;;;;;;5112864;28;20203;-82
2021/07/03 00:25:28;;;;;;;4.80;4.32;;;;;;;;;;5112719;28;20685;-82
2021/07/03 00:27:56;;;;;;;3.92;3.58;;;;;;;;;;5113089;28;20206;-83
2021/07/03 00:30:25;;;;;;;4.22;3.83;;;;;;;;;;5112763;28;20637;-83
2021/07/03 00:32:54;;;;;;;3.70;3.40;;;;;;;;;;5112891;28;20184;-82
2021/07/03 00:35:22;;;;;;;3.42;3.13;;;;;;;;;;5113130;28;20556;-83
2021/07/03 00:37:50;;;;;;;4.43;4.05;;;;;;;;;;5112861;28;20183;-83
2021/07/03 00:40:18;;;;;;;3.70;3.45;;;;;;;;;;5112843;28;20579;-83
2021/07/03 00:42:45;;;;;;;3.25;2.95;;;;;;;;;;5112751;28;20180;-83
2021/07/03 00:45:13;;;;;;;3.90;3.60;;;;;;;;;;5112883;28;20194;-82
2021/07/03 00:47:41;;;;;;;3.15;2.90;;;;;;;;;;5112612;28;20183;-83
2021/07/03 00:50:13;;;;;;;2.90;2.70;;;;;;;;;;5112682;28;20206;-83
2021/07/03 00:52:42;;;;;;;3.30;3.00;;;;;;;;;;5112717;28;20199;-83
2021/07/03 00:55:11;;;;;;;2.35;2.25;;;;;;;;;;5112740;28;20222;-82
2021/07/03 00:57:39;;;;;;;2.30;2.10;;;;;;;;;;5112775;28;20180;-82
2021/07/03 01:00:08;;;;;;;3.72;3.17;;;;;;;;;;5112363;28;20195;-83
2021/07/03 01:02:38;;;;;;;3.20;2.90;;;;;;;;;;5112886;28;20180;-83
2021/07/03 01:05:07;;;;;;;3.72;3.42;;;;;;;;;;5112177;28;20210;-82
2021/07/03 01:07:36;;;;;;;3.03;2.83;;;;;;;;;;5112346;28;20195;-82
2021/07/03 01:10:05;;;;;;;4.13;3.72;;;;;;;;;;5112704;28;20199;-82
2021/07/03 01:12:33;;;;;;;5.75;4.38;;;;;;;;;;5112342;28;20207;-82
2021/07/03 01:15:00;;;;;;;5.53;5.03;;;;;;;;;;5112273;28;20597;-82
2021/07/03 01:17:28;;;;;;;3.60;3.30;;;;;;;;;;5112279;28;20202;-83
2021/07/03 01:19:55;;;;;;;3.47;3.20;;;;;;;;;;5112604;28;20652;-82
2021/07/03 01:22:24;;;;;;;3.47;3.13;;;;;;;;;;5112101;28;20244;-82
2021/07/03 01:24:51;;;;;;;3.25;3.03;;;;;;;;;;5113652;28;20622;-82
2021/07/03 01:27:19;;;;;;;3.63;3.15;;;;;;;;;;5116302;28;20603;-83
2021/07/03 01:29:46;;;;;;;2.75;2.55;;;;;;;;;;5116372;28;20202;-83
2021/07/03 01:32:15;;;;;;;2.55;2.33;;;;;;;;;;5116201;28;20684;-82
2021/07/03 01:34:43;;;;;;;3.13;2.85;;;;;;;;;;5116312;28;20194;-82
2021/07/03 01:37:10;;;;;;;3.10;2.90;;;;;;;;;;5116330;28;20180;-82
2021/07/03 01:39:40;;;;;;;4.38;4.00;;;;;;;;;;5116368;28;20195;-82
2021/07/03 01:42:08;;;;;;;3.92;3.53;;;;;;;;;;5115839;28;20629;-83
2021/07/03 01:44:36;;;;;;;3.83;3.40;;;;;;;;;;5116156;28;20244;-82
2021/07/03 01:47:05;;;;;;;4.85;3.75;;;;;;;;;;5115987;28;20208;-83
2021/07/03 01:49:38;;;;;;;4.38;3.40;;;;;;;;;;5115955;28;20202;-82
2021/07/03 01:52:07;;;;;;;3.80;3.50;;;;;;;;;;5115684;28;20223;-83
2021/07/03 01:54:34;;;;;;;4.07;3.78;;;;;;;;;;5115367;28;20207;-83
2021/07/03 01:57:04;;;;;;;3.38;3.08;;;;;;;;;;5115249;28;20684;-83
2021/07/03 01:59:33;;;;;;;3.30;3.00;;;;;;;;;;5115185;28;20556;-83
2021/07/03 02:02:03;;;;;;;3.60;3.25;;;;;;;;;;5115752;28;20220;-83
2021/07/03 02:04:31;;;;;;;3.42;3.13;;;;;;;;;;5115856;28;20188;-83
2021/07/03 02:06:58;;;;;;;3.78;3.47;;;;;;;;;;5115549;28;20226;-83
2021/07/03 02:09:26;;;;;;;2.60;2.40;;;;;;;;;;5115327;28;20380;-82
2021/07/03 02:11:53;;;;;;;2.80;2.60;;;;;;;;;;5115157;28;20223;-82
2021/07/03 02:14:22;;;;;;;2.25;2.05;;;;;;;;;;5115178;28;20202;-82
2021/07/03 02:16:50;;;;;;;2.90;2.70;;;;;;;;;;5115595;28;20703;-82
2021/07/03 02:19:19;;;;;;;3.13;2.90;;;;;;;;;;5115379;28;20192;-82
2021/07/03 02:21:47;;;;;;;3.05;2.85;;;;;;;;;;5115301;28;20239;-84
2021/07/03 02:24:14;;;;;;;3.47;3.17;;;;;;;;;;5115669;28;20548;-83
2021/07/03 02:26:42;;;;;;;3.80;3.42;;;;;;;;;;5114475;28;20215;-82
2021/07/03 02:29:09;;;;;;;3.70;3.40;;;;;;;;;;5115090;28;20202;-83
2021/07/03 02:31:38;;;;;;;2.35;2.17;;;;;;;;;;5115215;28;20215;-82
2021/07/03 02:34:06;;;;;;;2.70;2.50;;;;;;;;;;5115381;28;20203;-82
2021/07/03 02:36:33;;;;;;;3.03;2.83;;;;;;;;;;5114748;28;20206;-84
2021/07/03 02:39:02;;;;;;;3.60;3.25;;;;;;;;;;5115216;28;20183;-83
2021/07/03 02:41:30;;;;;;;3.63;3.35;;;;;;;;;;5114864;28;20211;-82
2021/07/03 02:44:00;;;;;;;3.42;3.20;;;;;;;;;;5115237;28;20180;-82
2021/07/03 02:46:28;;;;;;;3.40;3.20;;;;;;;;;;5114188;28;20225;-83
2021/07/03 02:48:57;;;;;;;2.80;2.60;;;;;;;;;;5114999;28;20182;-83
2021/07/03 02:51:24;;;;;;;2.55;2.35;;;;;;;;;;5115011;28;20219;-82
2021/07/03 02:53:53;;;;;;;2.80;2.60;;;;;;;;;;5115039;28;20180;-82
2021/07/03 02:56:20;;;;;;;2.05;1.85;;;;;;;;;;5113937;28;20189;-82
2021/07/03 02:58:48;;;;;;;1.80;1.70;;;;;;;;;;5114092;28;20222;-82
2021/07/03 03:01:15;;;;;;;2.00;1.90;;;;;;;;;;5114614;28;20223;-82
2021/07/03 03:03:43;;;;;;;2.30;2.20;;;;;;;;;;5114901;28;20184;-82
2021/07/03 03:06:15;;;;;;;2.08;1.98;;;;;;;;;;5114615;28;20572;-83
2021/07/03 03:08:44;;;;;;;1.70;1.60;;;;;;;;;;5115063;28;20204;-83
2021/07/03 03:11:12;;;;;;;1.50;1.40;;;;;;;;;;5115069;28;20575;-83
2021/07/03 03:13:40;;;;;;;1.55;1.45;;;;;;;;;;5114617;28;20205;-84
2021/07/03 03:16:09;;;;;;;1.60;1.50;;;;;;;;;;5114566;28;20200;-82
2021/07/03 03:18:36;;;;;;;1.73;1.63;;;;;;;;;;5114489;28;20207;-82
2021/07/03 03:21:04;;;;;;;1.98;1.88;;;;;;;;;;5114361;28;20241;-82
2021/07/03 03:23:33;;;;;;;2.00;1.90;;;;;;;;;;5113757;28;20583;-82
2021/07/03 03:26:00;;;;;;;1.55;1.45;;;;;;;;;;5114308;28;20622;-83
2021/07/03 03:28:27;;;;;;;1.25;1.25;;;;;;;;;;5114126;28;20215;-82
2021/07/03 03:30:55;;;;;;;1.25;1.25;;;;;;;;;;5114157;28;20712;-83
2021/07/03 03:33:23;;;;;;;1.10;1.10;;;;;;;;;;5113694;28;20203;-82
2021/07/03 03:35:51;;;;;;;2.00;1.90;;;;;;;;;;5114192;28;20191;-82
2021/07/03 03:38:18;;;;;;;1.80;1.70;;;;;;;;;;5114165;28;20183;-82
2021/07/03 03:40:47;;;;;;;1.45;1.35;;;;;;;;;;5113714;28;20215;-82
2021/07/03 03:43:15;;;;;;;1.40;1.35;;;;;;;;;;5113901;28;20681;-82
2021/07/03 03:45:42;;;;;;;1.50;1.40;;;;;;;;;;5114146;28;20693;-81
2021/07/03 03:48:10;;;;;;;1.00;1.00;;;;;;;;;;5113441;28;20208;-82
2021/07/03 03:50:37;;;;;;;1.00;1.00;;;;;;;;;;5113970;28;20223;-81
2021/07/03 03:53:06;;;;;;;1.52;1.42;;;;;;;;;;5114869;28;20209;-83
2021/07/03 03:55:33;;;;;;;1.55;1.45;;;;;;;;;;5115145;28;20180;-84
2021/07/03 03:58:02;;;;;;;1.77;1.67;;;;;;;;;;5114927;28;20192;-83
2021/07/03 04:00:29;;;;;;;1.55;1.45;;;;;;;;;;5114372;28;20230;-84
2021/07/03 04:02:57;;;;;;;1.83;1.73;;;;;;;;;;5114173;28;20203;-83
2021/07/03 04:05:24;;;;;;;1.75;1.65;;;;;;;;;;5114768;28;20184;-85
2021/07/03 04:07:52;;;;;;;2.70;2.50;;;;;;;;;;5114556;28;20208;-85
2021/07/03 04:10:19;;;;;;;2.90;2.70;;;;;;;;;;5114474;28;20184;-83
2021/07/03 04:12:47;;;;;;;2.88;2.67;;;;;;;;;;5114704;28;20387;-84
2021/07/03 04:15:16;;;;;;;2.22;2.03;;;;;;;;;;5114678;28;20184;-84
2021/07/03 04:17:44;;;;;;;1.80;1.70;;;;;;;;;;5114764;28;20641;-83
2021/07/03 04:20:12;;;;;;;2.35;2.22;;;;;;;;;;5115232;28;20188;-85
2021/07/03 04:22:42;;;;;;;1.25;1.25;;;;;;;;;;5114137;28;20244;-84
2021/07/03 04:25:12;;;;;;;1.70;1.60;;;;;;;;;;5115302;28;20646;-83
2021/07/03 04:27:41;;;;;;;1.52;1.42;;;;;;;;;;5114887;28;20203;-83
2021/07/03 04:30:10;;;;;;;1.40;1.40;;;;;;;;;;5114915;28;20196;-84
2021/07/03 04:32:39;;;;;;;1.90;1.80;;;;;;;;;;5115416;28;20192;-82
2021/07/03 04:35:09;;;;;;;1.73;1.52;;;;;;;;;;5115043;28;20190;-84
2021/07/03 04:37:37;;;;;;;1.30;1.30;;;;;;;;;;5114762;28;20190;-84
2021/07/03 04:40:05;;;;;;;1.50;1.40;;;;;;;;;;5115513;28;20200;-84
2021/07/03 04:42:32;;;;;;;1.67;1.58;;;;;;;;;;5115494;28;20229;-83
2021/07/03 04:45:00;;;;;;;1.58;1.48;;;;;;;;;;5115277;28;20210;-83
2021/07/03 04:47:27;;;;;;;1.20;1.20;;;;;;;;;;5114874;28;20203;-84
2021/07/03 04:49:56;;;;;;;1.63;1.52;;;;;;;;;;5115473;28;20209;-85
2021/07/03 04:52:25;;;;;;;1.58;1.48;;;;;;;;;;5114271;28;20215;-84
2021/07/03 04:54:53;;;;;;;1.27;1.17;;;;;;;;;;5115131;28;20252;-84
2021/07/03 04:57:20;;;;;;;1.30;1.20;;;;;;;;;;5115167;28;20619;-83
2021/07/03 04:59:48;;;;;;;1.17;1.17;;;;;;;;;;5116540;28;20207;-84
2021/07/03 05:02:16;;;;;;;1.85;1.75;;;;;;;;;;5118630;28;20302;-84
2021/07/03 05:04:45;;;;;;;2.05;1.95;;;;;;;;;;5120217;28;20559;-85
2021/07/03 05:07:13;;;;;;;1.92;1.83;;;;;;;;;;5119480;28;20184;-84
2021/07/03 05:09:41;;;;;;;1.83;1.73;;;;;;;;;;5118483;28;20710;-83
2021/07/03 05:12:09;;;;;;;1.27;1.27;;;;;;;;;;5119367;28;20230;-83
2021/07/03 05:14:36;;;;;;;1.95;1.85;;;;;;;;;;5118998;28;20287;-85
2021/07/03 05:17:04;;;;;;;1.80;1.70;;;;;;;;;;5119549;28;20195;-84
2021/07/03 05:19:31;;;;;;;1.80;1.70;;;;;;;;;;5118772;28;20186;-84
2021/07/03 05:21:59;;;;;;;1.75;1.65;;;;;;;;;;5118922;28;20615;-84
2021/07/03 05:24:28;;;;;;;1.60;1.50;;;;;;;;;;5118733;28;20184;-86
2021/07/03 05:26:55;;;;;;;2.65;1.92;;;;;;;;;;5119226;28;20199;-83
2021/07/03 05:29:23;;;;;;;2.00;1.90;;;;;;;;;;5119338;28;20208;-85
2021/07/03 05:31:51;;;;;;;2.00;1.90;;;;;;;;;;5118942;28;20220;-85
2021/07/03 05:34:18;;;;;;;1.70;1.60;;;;;;;;;;5118616;28;20235;-84
2021/07/03 05:36:48;;;;;;;2.55;2.35;;;;;;;;;;5119226;28;20190;-85
2021/07/03 05:39:15;;;;;;;2.22;2.13;;;;;;;;;;5118749;28;20249;-83
2021/07/03 05:41:44;;;;;;;2.15;2.05;;;;;;;;;;5118726;28;20219;-85
2021/07/03 05:44:12;;;;;;;2.58;2.38;;;;;;;;;;5118634;28;20203;-86
2021/07/03 05:46:40;;;;;;;2.50;2.30;;;;;;;;;;5119205;28;20188;-84
2021/07/03 05:49:08;;;;;;;1.95;1.85;;;;;;;;;;5118050;28;20207;-83
2021/07/03 05:51:36;;;;;;;1.80;1.70;;;;;;;;;;5118610;28;20559;-85
2021/07/03 05:54:03;;;;;;;1.70;1.60;;;;;;;;;;5118276;28;20176;-84
2021/07/03 05:56:31;;;;;;;2.00;1.90;;;;;;;;;;5117801;28;20580;-84
2021/07/03 05:59:01;;;;;;;2.53;2.00;;;;;;;;;;5117750;28;20187;-85
2021/07/03 06:01:28;;;;;;;2.17;2.08;;;;;;;;;;5118124;28;20272;-84
2021/07/03 06:03:56;;;;;;;2.00;1.90;;;;;;;;;;5112513;27;20662;-85
2021/07/03 06:06:23;;;;;;;1.55;1.45;;;;;;;;;;5116527;28;20187;-84
2021/07/03 06:08:51;;;;;;;1.70;1.60;;;;;;;;;;5116561;28;20211;-84
2021/07/03 06:11:19;;;;;;;1.95;1.85;;;;;;;;;;5115094;28;20224;-84
2021/07/03 06:13:46;;;;;;;2.35;2.22;;;;;;;;;;5100825;28;20206;-84
2021/07/03 06:16:16;;;;;;;2.03;1.92;;;;;;;;;;5095627;28;20588;-83
2021/07/03 06:18:43;;;;;;;2.25;2.05;;;;;;;;;;5096320;28;20200;-84
2021/07/03 06:21:11;;;;;;;2.10;2.00;;;;;;;;;;5095448;28;20228;-83
2021/07/03 06:23:38;;;;;;;2.65;2.45;;;;;;;;;;5109276;28;20199;-81
2021/07/03 06:26:06;;;;;;;2.15;2.05;;;;;;;;;;5115431;28;20191;-84
2021/07/03 06:28:34;;;;;;;2.47;2.28;;;;;;;;;;5115533;28;20195;-84
2021/07/03 06:31:02;;;;;;;2.55;2.35;;;;;;;;;;5115524;28;20215;-84
2021/07/03 06:33:31;;;;;;;2.13;2.03;;;;;;;;;;5115898;28;20195;-85
2021/07/03 06:35:59;;;;;;;2.90;2.70;;;;;;;;;;5116305;28;20203;-84
2021/07/03 06:38:26;;;;;;;3.58;3.28;;;;;;;;;;5115438;28;20199;-85
2021/07/03 06:40:53;;;;;;;2.97;2.78;;;;;;;;;;5115590;28;20224;-84
2021/07/03 06:43:21;;;;;;;3.97;3.67;;;;;;;;;;5115690;28;20277;-84
2021/07/03 06:45:48;;;;;;;4.50;4.10;;;;;;;;;;5116676;28;20978;-85
2021/07/03 06:48:16;;;;;;;4.72;4.32;;;;;;;;;;5115530;28;20188;-85
2021/07/03 06:50:45;;;;;;;4.03;3.72;;;;;;;;;;5115065;28;20230;-84
2021/07/03 06:53:12;;;;;;;3.38;3.17;;;;;;;;;;5114963;28;20692;-84
2021/07/03 06:55:40;;;;;;;4.90;4.50;;;;;;;;;;5115204;28;20203;-85
2021/07/03 06:58:07;;;;;;;4.55;4.15;;;;;;;;;;5115283;28;20596;-84
2021/07/03 07:00:35;;;;;;;4.30;4.00;;;;;;;;;;5115468;28;20216;-84
2021/07/03 07:03:02;;;;;;;4.05;3.75;;;;;;;;;;5115116;28;20195;-85
2021/07/03 07:05:31;;;;;;;4.80;4.40;;;;;;;;;;5115512;28;20274;-86
2021/07/03 07:08:00;;;;;;;5.65;5.15;;;;;;;;;;5116085;28;20206;-86
2021/07/03 07:10:27;;;;;;;5.35;4.85;;;;;;;;;;5114693;28;20223;-85
2021/07/03 07:12:55;;;;;;;4.88;4.47;;;;;;;;;;5106310;28;20200;-84
2021/07/03 07:15:22;;;;;;;5.80;5.30;;;;;;;;;;5094026;28;20201;-84
2021/07/03 07:17:50;;;;;;;4.45;4.15;;;;;;;;;;5094375;28;20202;-84
2021/07/03 07:20:18;;;;;;;4.47;4.05;;;;;;;;;;5093903;28;20180;-84
2021/07/03 07:22:45;;;;;;;4.35;4.05;;;;;;;;;;5092857;28;20228;-84
2021/07/03 07:25:14;;;;;;;4.35;4.03;;;;;;;;;;5093808;28;20187;-84
2021/07/03 07:27:42;;;;;;;4.93;4.53;;;;;;;;;;5093750;28;20188;-84
2021/07/03 07:30:12;;;;;;;5.30;4.90;;;;;;;;;;5093669;28;20224;-83
2021/07/03 07:32:40;;;;;;;5.07;4.68;;;;;;;;;;5099452;28;20563;-83
2021/07/03 07:35:09;;;;;;;5.75;5.28;;;;;;;;;;5114203;28;20229;-84
2021/07/03 07:37:36;;;;;;;5.68;5.18;;;;;;;;;;5114535;28;20184;-84
2021/07/03 07:40:05;;;;;;;7.80;7.10;;;;;;;;;;5114012;28;20196;-84
2021/07/03 07:42:34;;;;;;;6.93;6.32;;;;;;;;;;5113949;28;20215;-84
2021/07/03 07:45:02;;;;;;;4.95;4.55;;;;;;;;;;5114183;28;20179;-84
2021/07/03 07:47:29;;;;;;;7.15;6.45;;;;;;;;;;5114021;28;20207;-84
2021/07/03 07:49:57;;;;;;;6.05;5.55;;;;;;;;;;5113762;28;20223;-83
2021/07/03 07:52:24;;;;;;;4.30;4.00;;;;;;;;;;5113465;28;20220;-84
2021/07/03 07:54:52;;;;;;;6.70;6.07;;;;;;;;;;5113596;28;20195;-84
2021/07/03 07:57:21;;;;;;;5.07;4.57;;;;;;;;;;5113634;28;20188;-84
2021/07/03 07:59:50;;;;;;;7.50;6.78;;;;;;;;;;5113290;28;20624;-83
2021/07/03 08:02:18;;;;;;;5.80;5.30;;;;;;;;;;5110780;28;20223;-84
2021/07/03 08:04:45;;;;;;;6.13;5.53;;;;;;;;;;5093201;28;20189;-85
2021/07/03 08:07:13;;;;;;;6.90;6.30;;;;;;;;;;5093253;28;20191;-84
2021/07/03 08:09:44;;;;;;;5.80;5.30;;;;;;;;;;5092884;28;20205;-84
2021/07/03 08:12:11;;;;;;;6.45;5.85;;;;;;;;;;5092862;28;20685;-84
2021/07/03 08:14:39;;;;;;;6.63;5.90;;;;;;;;;;5092526;28;20246;-84
2021/07/03 08:17:08;;;;;;;5.32;4.93;;;;;;;;;;5092833;28;20177;-84
2021/07/03 08:19:35;;;;;;;7.70;6.93;;;;;;;;;;5093097;28;20204;-84
2021/07/03 08:22:03;;;;;;;7.18;6.47;;;;;;;;;;5092704;28;20228;-84
2021/07/03 08:24:31;;;;;;;6.07;5.53;;;;;;;;;;5113150;28;20191;-84
2021/07/03 08:26:59;;;;;;;6.47;5.97;;;;;;;;;;5113203;28;20194;-84
2021/07/03 08:29:26;;;;;;;7.47;6.78;;;;;;;;;;5113336;28;20203;-85
2021/07/03 08:31:54;;;;;;;6.75;6.15;;;;;;;;;;5113329;28;20219;-83
2021/07/03 08:34:22;;;;;;;6.65;5.85;;;;;;;;;;5113668;28;20200;-84
2021/07/03 08:36:50;;;;;;;5.47;4.97;;;;;;;;;;5113224;28;20178;-84
2021/07/03 08:39:17;;;;;;;6.30;5.68;;;;;;;;;;5112705;28;20215;-85
2021/07/03 08:41:45;;;;;;;4.43;4.10;;;;;;;;;;5112537;28;20215;-84
2021/07/03 08:44:16;;;;;;;5.50;4.57;;;;;;;;;;5112516;28;20196;-83
2021/07/03 08:46:44;;;;;;;7.25;6.10;;;;;;;;;;5113217;28;20207;-82
2021/07/03 08:49:14;;;;;;;6.90;6.32;;;;;;;;;;5112947;28;20212;-82
2021/07/03 08:51:44;;;;;;;5.00;4.60;;;;;;;;;;5112733;28;20224;-84
2021/07/03 08:54:11;;;;;;;4.15;3.75;;;;;;;;;;5112716;28;20605;-85
2021/07/03 08:56:38;;;;;;;4.30;3.90;;;;;;;;;;5112786;28;20184;-84
2021/07/03 08:59:16;;;;;;;4.20;3.90;;;;;;;;;;5112818;28;20194;-83
2021/07/03 09:01:52;;;;;;;4.15;3.85;;;;;;;;;;5112487;28;20228;-84
2021/07/03 09:04:19;;;;;;;3.70;3.40;;;;;;;;;;5112608;28;20195;-85
2021/07/03 09:06:48;;;;;;;3.85;3.45;;;;;;;;;;5112321;28;20176;-85
2021/07/03 09:09:25;;;;;;;3.97;3.67;;;;;;;;;;5112370;28;20206;-85
2021/07/03 09:11:55;;;;;;;4.32;3.92;;;;;;;;;;5112465;28;20230;-85
2021/07/03 09:14:29;;;;;;;4.50;4.15;;;;;;;;;;5112657;28;20206;-84
2021/07/03 09:16:58;;;;;;;4.40;3.70;;;;;;;;;;5113167;28;20188;-84
2021/07/03 09:19:29;;;;;;;3.95;3.60;;;;;;;;;;5112650;28;20186;-84
2021/07/03 09:22:00;;;;;;;3.78;3.47;;;;;;;;;;5112267;28;20242;-83
2021/07/03 09:24:36;;;;;;;4.07;3.72;;;;;;;;;;5112452;28;20184;-84
2021/07/03 09:27:04;;;;;;;4.28;3.83;;;;;;;;;;5112329;28;20573;-85
2021/07/03 09:29:32;;;;;;;3.92;3.63;;;;;;;;;;5112206;28;20204;-85
2021/07/03 09:32:08;;;;;;;4.25;3.95;;;;;;;;;;5111916;28;20227;-84
2021/07/03 09:34:37;;;;;;;4.00;3.70;;;;;;;;;;5112261;28;20176;-84
2021/07/03 09:37:07;;;;;;;4.03;3.72;;;;;;;;;;5112258;28;20192;-84
2021/07/03 09:39:34;;;;;;;3.00;2.80;;;;;;;;;;5112478;28;20217;-85
2021/07/03 09:42:01;;;;;;;3.40;3.20;;;;;;;;;;5112356;28;20716;-85
2021/07/03 09:44:29;;;;;;;3.47;3.20;;;;;;;;;;5112271;28;20278;-83
2021/07/03 09:46:56;;;;;;;3.55;3.25;;;;;;;;;;5115417;28;20183;-85
2021/07/03 09:49:28;;;;;;;2.72;2.53;;;;;;;;;;5116126;28;20184;-84
2021/07/03 09:51:57;;;;;;;3.00;2.80;;;;;;;;;;5116505;28;20579;-84
2021/07/03 09:54:28;;;;;;;3.78;3.38;;;;;;;;;;5115607;28;20578;-84
2021/07/03 09:56:59;;;;;;;3.47;3.17;;;;;;;;;;5115807;28;20195;-83
2021/07/03 09:59:27;;;;;;;3.00;2.80;;;;;;;;;;5116460;28;20187;-84
2021/07/03 10:01:54;;;;;;;2.70;2.60;;;;;;;;;;5115212;28;20216;-84
2021/07/03 10:04:22;;;;;;;3.08;2.88;;;;;;;;;;5128377;27;20197;-83
2021/07/03 10:06:52;;;;;;;2.85;2.65;;;;;;;;;;5107356;28;20181;-85
2021/07/03 10:09:26;;;;;;;3.17;2.97;;;;;;;;;;5099752;28;20280;-84
2021/07/03 10:11:58;;;;;;;3.40;3.20;;;;;;;;;;5095288;28;20224;-85
2021/07/03 10:14:26;;;;;;;2.78;2.50;;;;;;;;;;5108138;28;20667;-84
2021/07/03 10:17:01;;;;;;;2.38;2.28;;;;;;;;;;5094860;28;20202;-84
2021/07/03 10:19:33;;;;;;;2.30;2.20;;;;;;;;;;5109424;28;20641;-83
2021/07/03 10:22:13;;;;;;;2.00;1.90;;;;;;;;;;5114521;28;20224;-84
2021/07/03 10:24:59;;;;;;;3.15;2.95;;;;;;;;;;5102744;27;20196;-84
2021/07/03 10:27:30;;;;;;;3.13;2.90;;;;;;;;;;5115132;28;20199;-84
2021/07/03 10:29:59;;;;;;;2.65;2.45;;;;;;;;;;5105977;28;20195;-85
2021/07/03 10:32:30;;;;;;;2.70;2.50;;;;;;;;;;5098121;28;20246;-84
2021/07/03 10:35:10;;;;;;;2.50;2.35;;;;;;;;;;5112926;28;20195;-84
2021/07/03 10:37:37;;;;;;;2.92;2.72;;;;;;;;;;5114889;28;20218;-83
2021/07/03 10:40:16;;;;;;;2.90;2.70;;;;;;;;;;5105548;28;20196;-85
2021/07/03 10:42:44;;;;;;;2.70;2.50;;;;;;;;;;5100435;28;20195;-84
2021/07/03 10:45:14;;;;;;;2.45;2.35;;;;;;;;;;5114995;28;20195;-83
2021/07/03 10:47:43;;;;;;;2.75;2.55;;;;;;;;;;5114761;28;20187;-84
2021/07/03 10:50:25;;;;;;;1.98;1.88;;;;;;;;;;5099409;28;20253;-85
2021/07/03 10:52:55;;;;;;;2.75;2.55;;;;;;;;;;5112792;28;20720;-84
2021/07/03 10:55:35;;;;;;;3.35;3.10;;;;;;;;;;5106909;28;20198;-86
2021/07/03 10:58:14;;;;;;;3.22;3.03;;;;;;;;;;5092499;28;20192;-85
2021/07/03 11:00:42;;;;;;;2.90;2.70;;;;;;;;;;5095279;28;20223;-84
2021/07/03 11:03:14;;;;;;;2.25;2.15;;;;;;;;;;5105455;28;20187;-85
2021/07/03 11:05:42;;;;;;;2.95;2.75;;;;;;;;;;5114241;28;20236;-84
2021/07/03 11:08:20;;;;;;;2.47;2.38;;;;;;;;;;5097140;28;20196;-85
2021/07/03 11:10:49;;;;;;;2.47;2.28;;;;;;;;;;5114565;28;20238;-85
2021/07/03 11:13:23;;;;;;;2.35;2.25;;;;;;;;;;5111130;28;20200;-83
2021/07/03 11:15:51;;;;;;;2.85;2.65;;;;;;;;;;5094105;28;20547;-85
2021/07/03 11:18:19;;;;;;;4.20;3.03;;;;;;;;;;5094043;28;20191;-85
2021/07/03 11:20:46;;;;;;;3.65;3.45;;;;;;;;;;5076308;28;20228;-85
2021/07/03 11:23:15;;;;;;;3.28;3.05;;;;;;;;;;5002292;28;20293;-85
2021/07/03 11:25:45;;;;;;;2.90;2.70;;;;;;;;;;5011417;28;20206;-86
2021/07/03 11:28:17;;;;;;;2.42;2.33;;;;;;;;;;5011075;28;20203;-85
2021/07/03 11:30:46;;;;;;;3.50;3.30;;;;;;;;;;5011033;28;20696;-86
2021/07/03 11:33:15;;;;;;;2.65;2.53;;;;;;;;;;5000732;28;20224;-85
2021/07/03 11:35:47;;;;;;;3.10;2.90;;;;;;;;;;4991188;28;20192;-85
2021/07/03 11:38:18;;;;;;;2.45;2.35;;;;;;;;;;5002713;28;20200;-85
2021/07/03 11:40:46;;;;;;;2.72;2.53;;;;;;;;;;4990589;28;20223;-86
2021/07/03 11:43:15;;;;;;;2.72;2.60;;;;;;;;;;4999874;28;20679;-85
2021/07/03 11:45:44;;;;;;;2.67;2.47;;;;;;;;;;5010504;28;20179;-85
2021/07/03 11:48:14;;;;;;;2.28;2.17;;;;;;;;;;5009772;28;20557;-85
2021/07/03 11:50:43;;;;;;;2.20;2.00;;;;;;;;;;5008620;28;20219;-85
2021/07/03 11:53:14;;;;;;;1.80;1.70;;;;;;;;;;5009650;28;20227;-85
2021/07/03 11:55:45;;;;;;;1.90;1.80;;;;;;;;;;5010513;28;20196;-84
2021/07/03 11:58:16;;;;;;;2.10;2.00;;;;;;;;;;5008566;28;20183;-85
2021/07/03 12:00:47;;;;;;;1.83;1.73;;;;;;;;;;5004041;28;20226;-84
2021/07/03 12:03:17;;;;;;;1.80;1.70;;;;;;;;;;5003068;28;20190;-84
2021/07/03 12:05:49;;;;;;;2.58;2.38;;;;;;;;;;4990633;28;20792;-84
2021/07/03 12:08:17;;;;;;;1.77;1.67;;;;;;;;;;4993842;28;20215;-84
2021/07/03 12:10:47;;;;;;;2.60;2.40;;;;;;;;;;5005670;28;20226;-85
2021/07/03 12:13:24;;;;;;;2.42;2.33;;;;;;;;;;5004343;28;20210;-84
2021/07/03 12:16:04;;;;;;;2.47;2.30;;;;;;;;;;5009144;28;20183;-84
2021/07/03 12:18:34;;;;;;;2.47;2.28;;;;;;;;;;4989541;28;20175;-84
2021/07/03 12:21:07;;;;;;;2.70;2.50;;;;;;;;;;5017706;28;20690;-84
2021/07/03 12:23:36;;;;;;;2.33;2.13;;;;;;;;;;5105295;28;20190;-84
2021/07/03 12:26:04;;;;;;;1.85;1.75;;;;;;;;;;5113087;28;20180;-84
2021/07/03 12:28:34;;;;;;;2.10;2.00;;;;;;;;;;5110691;28;20687;-84
2021/07/03 12:31:07;;;;;;;1.92;1.83;;;;;;;;;;5099308;28;20216;-84
2021/07/03 12:33:36;;;;;;;1.55;1.45;;;;;;;;;;5092401;28;20585;-84
2021/07/03 12:36:04;;;;;;;2.40;2.20;;;;;;;;;;5104505;28;20272;-83
2021/07/03 12:38:32;;;;;;;2.17;2.08;;;;;;;;;;5092421;28;20181;-84
2021/07/03 12:41:00;;;;;;;1.67;1.58;;;;;;;;;;5091890;28;20706;-84
2021/07/03 12:43:34;;;;;;;2.00;1.90;;;;;;;;;;5104778;28;20191;-84
2021/07/03 12:46:03;;;;;;;1.88;1.77;;;;;;;;;;5112496;28;20183;-86
2021/07/03 12:48:38;;;;;;;2.03;1.92;;;;;;;;;;5112592;28;20188;-84
2021/07/03 12:51:09;;;;;;;2.33;2.22;;;;;;;;;;5112381;28;20215;-84
2021/07/03 12:53:39;;;;;;;2.28;2.17;;;;;;;;;;5112770;28;20208;-84
2021/07/03 12:56:09;;;;;;;2.60;2.40;;;;;;;;;;5112351;28;20183;-84
2021/07/03 12:58:38;;;;;;;2.40;2.30;;;;;;;;;;5112516;28;20190;-84
2021/07/03 13:01:07;;;;;;;2.35;2.20;;;;;;;;;;5111945;28;20558;-85
2021/07/03 13:03:34;;;;;;;1.88;1.77;;;;;;;;;;5112364;28;20191;-84
2021/07/03 13:06:04;;;;;;;1.60;1.50;;;;;;;;;;5112622;28;20184;-85
2021/07/03 13:08:34;;;;;;;2.35;2.13;;;;;;;;;;5112118;28;20200;-86
2021/07/03 13:11:03;;;;;;;1.88;1.77;;;;;;;;;;5112824;28;20219;-86
2021/07/03 13:13:31;;;;;;;2.80;2.10;;;;;;;;;;5112267;28;20579;-85
2021/07/03 13:16:00;;;;;;;1.80;1.70;;;;;;;;;;5112237;28;20207;-84
2021/07/03 13:18:27;;;;;;;2.00;1.90;;;;;;;;;;5107007;28;20204;-84
2021/07/03 13:20:54;;;;;;;1.52;1.38;;;;;;;;;;5102948;28;20231;-84
2021/07/03 13:23:22;;;;;;;1.40;1.30;;;;;;;;;;5115711;28;20199;-84
2021/07/03 13:25:52;;;;;;;1.42;1.38;;;;;;;;;;5116643;28;20187;-85
2021/07/03 13:28:19;;;;;;;1.80;1.70;;;;;;;;;;5116377;28;20180;-85
2021/07/03 13:30:47;;;;;;;2.25;2.15;;;;;;;;;;5116225;28;20223;-84
2021/07/03 13:33:16;;;;;;;2.17;2.08;;;;;;;;;;5105360;28;20552;-86
2021/07/03 13:35:43;;;;;;;1.90;1.80;;;;;;;;;;5095826;28;20638;-84
2021/07/03 13:38:11;;;;;;;1.88;1.77;;;;;;;;;;5096054;28;20187;-87
2021/07/03 13:40:39;;;;;;;2.58;2.38;;;;;;;;;;5095653;28;20220;-85
2021/07/03 13:43:06;;;;;;;2.28;2.17;;;;;;;;;;5104945;28;20536;-85
2021/07/03 13:45:39;;;;;;;2.88;2.28;;;;;;;;;;5115738;28;20282;-86
2021/07/03 13:48:07;;;;;;;1.90;1.80;;;;;;;;;;5115950;28;20188;-85
2021/07/03 13:50:37;;;;;;;2.83;2.63;;;;;;;;;;5116148;28;20220;-86
2021/07/03 13:53:04;;;;;;;1.98;1.88;;;;;;;;;;5116115;28;20226;-86
2021/07/03 13:55:33;;;;;;;1.98;1.88;;;;;;;;;;5116081;28;20533;-85
2021/07/03 13:58:00;;;;;;;1.80;1.70;;;;;;;;;;5116421;28;20200;-86
2021/07/03 14:00:28;;;;;;;2.38;2.22;;;;;;;;;;5115792;28;20222;-86
2021/07/03 14:02:55;;;;;;;2.10;2.00;;;;;;;;;;5115226;28;20210;-86
2021/07/03 14:05:23;;;;;;;1.65;1.55;;;;;;;;;;5116592;28;20194;-84
2021/07/03 14:07:53;;;;;;;1.67;1.58;;;;;;;;;;5115843;28;20198;-86
2021/07/03 14:10:21;;;;;;;1.85;1.75;;;;;;;;;;5100583;28;20210;-86
2021/07/03 14:12:49;;;;;;;1.90;1.80;;;;;;;;;;5101920;28;20737;-86
2021/07/03 14:15:21;;;;;;;1.90;1.80;;;;;;;;;;5115215;28;20693;-86
2021/07/03 14:17:48;;;;;;;1.63;1.60;;;;;;;;;;5116227;28;20180;-86
2021/07/03 14:20:16;;;;;;;2.33;2.13;;;;;;;;;;5115383;28;20172;-87
2021/07/03 14:22:45;;;;;;;2.40;2.28;;;;;;;;;;5108767;28;20236;-87
2021/07/03 14:25:15;;;;;;;2.60;2.40;;;;;;;;;;5095216;28;20253;-86
2021/07/03 14:27:43;;;;;;;1.55;1.55;;;;;;;;;;5094980;28;20187;-86
2021/07/03 14:30:12;;;;;;;2.40;2.20;;;;;;;;;;5094508;28;20199;-87
2021/07/03 14:32:39;;;;;;;2.00;1.90;;;;;;;;;;5100085;28;20195;-86
2021/07/03 14:35:08;;;;;;;1.88;1.77;;;;;;;;;;5115391;28;20204;-86
2021/07/03 14:37:39;;;;;;;2.22;2.13;;;;;;;;;;5115384;28;20195;-86
2021/07/03 14:40:11;;;;;;;1.65;1.55;;;;;;;;;;5094805;28;20225;-87
2021/07/03 14:42:39;;;;;;;2.15;2.05;;;;;;;;;;5099933;28;20180;-87
2021/07/03 14:45:08;;;;;;;1.80;1.70;;;;;;;;;;5114865;28;20231;-87
2021/07/03 14:47:36;;;;;;;2.22;2.13;;;;;;;;;;5114696;28;20289;-87
2021/07/03 14:50:08;;;;;;;1.95;1.85;;;;;;;;;;5095639;28;20609;-87
2021/07/03 14:56:24;;;;;;;1.77;1.67;;;;;;;;;;5082512;28;20207;-86